sensor_id;sensor_type;location;lat;lon;timestamp;P1;durP1;ratioP1;P2;durP2;ratioP2
61291;SDS011;47165;42.664;23.368;2022-08-14T00:00:15;18.45;;;9.88;;
61291;SDS011;47165;42.664;23.368;2022-08-14T00:02:42;20.65;;;8.90;;
61291;SDS011;47165;42.664;23.368;2022-08-14T00:05:10;13.65;;;8.13;;
61291;SDS011;47165;42.664;23.368;2022-08-14T00:07:38;18.17;;;9.75;;
61291;SDS011;47165;42.664;23.368;2022-08-14T00:10:07;14.13;;;7.70;;
61291;SDS011;47165;42.664;23.368;2022-08-14T00:12:36;14.13;;;8.40;;
61291;SDS011;47165;42.664;23.368;2022-08-14T00:15:04;14.50;;;8.20;;
61291;SDS011;47165;42.664;23.368;2022-08-14T00:17:33;14.50;;;8.30;;
61291;SDS011;47165;42.664;23.368;2022-08-14T00:19:58;16.48;;;8.35;;
61291;SDS011;47165;42.664;23.368;2022-08-14T00:22:24;14.13;;;8.63;;
61291;SDS011;47165;42.664;23.368;2022-08-14T00:24:49;11.52;;;7.30;;
61291;SDS011;47165;42.664;23.368;2022-08-14T00:27:15;17.73;;;8.95;;
61291;SDS011;47165;42.664;23.368;2022-08-14T00:29:40;14.98;;;8.63;;
61291;SDS011;47165;42.664;23.368;2022-08-14T00:32:06;15.70;;;9.45;;
61291;SDS011;47165;42.664;23.368;2022-08-14T00:34:32;16.77;;;9.57;;
61291;SDS011;47165;42.664;23.368;2022-08-14T00:36:57;15.70;;;9.40;;
61291;SDS011;47165;42.664;23.368;2022-08-14T00:39:23;19.20;;;9.65;;
61291;SDS011;47165;42.664;23.368;2022-08-14T00:41:48;14.45;;;9.20;;
61291;SDS011;47165;42.664;23.368;2022-08-14T00:44:14;14.75;;;8.52;;
61291;SDS011;47165;42.664;23.368;2022-08-14T00:46:40;13.75;;;7.70;;
61291;SDS011;47165;42.664;23.368;2022-08-14T00:49:06;13.00;;;7.57;;
61291;SDS011;47165;42.664;23.368;2022-08-14T00:51:32;18.83;;;8.52;;
61291;SDS011;47165;42.664;23.368;2022-08-14T00:53:59;12.88;;;7.55;;
61291;SDS011;47165;42.664;23.368;2022-08-14T00:56:27;14.00;;;7.57;;
61291;SDS011;47165;42.664;23.368;2022-08-14T00:58:53;15.80;;;9.07;;
61291;SDS011;47165;42.664;23.368;2022-08-14T01:01:19;15.20;;;9.63;;
61291;SDS011;47165;42.664;23.368;2022-08-14T01:03:45;14.65;;;7.55;;
61291;SDS011;47165;42.664;23.368;2022-08-14T01:06:11;17.63;;;10.02;;
61291;SDS011;47165;42.664;23.368;2022-08-14T01:08:39;15.30;;;9.50;;
61291;SDS011;47165;42.664;23.368;2022-08-14T01:11:06;15.70;;;8.73;;
61291;SDS011;47165;42.664;23.368;2022-08-14T01:13:33;18.00;;;10.10;;
61291;SDS011;47165;42.664;23.368;2022-08-14T01:16:02;24.77;;;11.82;;
61291;SDS011;47165;42.664;23.368;2022-08-14T01:18:30;14.52;;;8.93;;
61291;SDS011;47165;42.664;23.368;2022-08-14T01:21:15;15.02;;;9.35;;
61291;SDS011;47165;42.664;23.368;2022-08-14T01:23:47;15.98;;;8.63;;
61291;SDS011;47165;42.664;23.368;2022-08-14T01:26:16;13.32;;;8.30;;
61291;SDS011;47165;42.664;23.368;2022-08-14T01:28:46;14.88;;;9.10;;
61291;SDS011;47165;42.664;23.368;2022-08-14T01:31:16;18.20;;;8.60;;
61291;SDS011;47165;42.664;23.368;2022-08-14T01:33:43;14.93;;;8.93;;
61291;SDS011;47165;42.664;23.368;2022-08-14T01:36:12;13.38;;;7.30;;
61291;SDS011;47165;42.664;23.368;2022-08-14T01:38:40;14.50;;;7.72;;
61291;SDS011;47165;42.664;23.368;2022-08-14T01:41:08;11.10;;;7.20;;
61291;SDS011;47165;42.664;23.368;2022-08-14T01:43:47;15.13;;;8.13;;
61291;SDS011;47165;42.664;23.368;2022-08-14T01:46:19;11.20;;;7.13;;
61291;SDS011;47165;42.664;23.368;2022-08-14T01:48:48;14.20;;;7.32;;
61291;SDS011;47165;42.664;23.368;2022-08-14T01:51:16;14.65;;;7.95;;
61291;SDS011;47165;42.664;23.368;2022-08-14T01:53:47;10.63;;;6.65;;
61291;SDS011;47165;42.664;23.368;2022-08-14T01:56:17;10.10;;;6.55;;
61291;SDS011;47165;42.664;23.368;2022-08-14T01:58:46;10.85;;;6.55;;
61291;SDS011;47165;42.664;23.368;2022-08-14T02:01:19;11.85;;;7.72;;
61291;SDS011;47165;42.664;23.368;2022-08-14T02:03:45;8.95;;;5.90;;
61291;SDS011;47165;42.664;23.368;2022-08-14T02:06:12;9.48;;;6.63;;
61291;SDS011;47165;42.664;23.368;2022-08-14T02:08:39;10.25;;;6.25;;
61291;SDS011;47165;42.664;23.368;2022-08-14T02:11:06;11.95;;;6.05;;
61291;SDS011;47165;42.664;23.368;2022-08-14T02:13:56;15.30;;;6.30;;
61291;SDS011;47165;42.664;23.368;2022-08-14T02:16:28;7.82;;;5.97;;
61291;SDS011;47165;42.664;23.368;2022-08-14T02:18:58;11.90;;;6.25;;
61291;SDS011;47165;42.664;23.368;2022-08-14T02:21:27;10.30;;;6.30;;
61291;SDS011;47165;42.664;23.368;2022-08-14T02:23:55;8.90;;;6.18;;
61291;SDS011;47165;42.664;23.368;2022-08-14T02:26:25;9.52;;;6.50;;
61291;SDS011;47165;42.664;23.368;2022-08-14T02:28:55;10.43;;;6.53;;
61291;SDS011;47165;42.664;23.368;2022-08-14T02:31:28;11.77;;;6.18;;
61291;SDS011;47165;42.664;23.368;2022-08-14T02:33:57;12.75;;;6.40;;
61291;SDS011;47165;42.664;23.368;2022-08-14T02:36:24;8.40;;;5.80;;
61291;SDS011;47165;42.664;23.368;2022-08-14T02:38:51;10.57;;;7.18;;
61291;SDS011;47165;42.664;23.368;2022-08-14T02:41:16;11.07;;;6.47;;
61291;SDS011;47165;42.664;23.368;2022-08-14T02:43:42;13.40;;;6.28;;
61291;SDS011;47165;42.664;23.368;2022-08-14T02:46:08;9.77;;;6.63;;
61291;SDS011;47165;42.664;23.368;2022-08-14T02:48:37;12.50;;;6.80;;
61291;SDS011;47165;42.664;23.368;2022-08-14T02:51:08;9.40;;;6.50;;
61291;SDS011;47165;42.664;23.368;2022-08-14T02:53:38;9.73;;;6.78;;
61291;SDS011;47165;42.664;23.368;2022-08-14T02:56:06;12.25;;;7.30;;
61291;SDS011;47165;42.664;23.368;2022-08-14T02:58:33;11.02;;;6.32;;
61291;SDS011;47165;42.664;23.368;2022-08-14T03:01:02;10.75;;;7.32;;
61291;SDS011;47165;42.664;23.368;2022-08-14T03:03:28;11.70;;;7.25;;
61291;SDS011;47165;42.664;23.368;2022-08-14T03:05:54;15.98;;;7.90;;
61291;SDS011;47165;42.664;23.368;2022-08-14T03:08:19;17.50;;;8.52;;
61291;SDS011;47165;42.664;23.368;2022-08-14T03:10:46;14.07;;;8.13;;
61291;SDS011;47165;42.664;23.368;2022-08-14T03:13:12;12.85;;;7.95;;
61291;SDS011;47165;42.664;23.368;2022-08-14T03:15:37;11.77;;;8.13;;
61291;SDS011;47165;42.664;23.368;2022-08-14T03:18:18;18.50;;;9.40;;
61291;SDS011;47165;42.664;23.368;2022-08-14T03:20:47;18.17;;;8.68;;
61291;SDS011;47165;42.664;23.368;2022-08-14T03:23:13;16.70;;;9.05;;
61291;SDS011;47165;42.664;23.368;2022-08-14T03:25:38;17.27;;;9.75;;
61291;SDS011;47165;42.664;23.368;2022-08-14T03:28:04;18.90;;;10.25;;
61291;SDS011;47165;42.664;23.368;2022-08-14T03:30:32;18.83;;;10.30;;
61291;SDS011;47165;42.664;23.368;2022-08-14T03:32:58;21.58;;;10.07;;
61291;SDS011;47165;42.664;23.368;2022-08-14T03:35:24;18.17;;;9.50;;
61291;SDS011;47165;42.664;23.368;2022-08-14T03:37:50;18.50;;;10.02;;
61291;SDS011;47165;42.664;23.368;2022-08-14T03:40:20;17.25;;;10.00;;
61291;SDS011;47165;42.664;23.368;2022-08-14T03:42:49;20.35;;;11.40;;
61291;SDS011;47165;42.664;23.368;2022-08-14T03:45:15;26.02;;;13.07;;
61291;SDS011;47165;42.664;23.368;2022-08-14T03:47:41;18.55;;;10.05;;
61291;SDS011;47165;42.664;23.368;2022-08-14T03:50:07;20.88;;;10.90;;
61291;SDS011;47165;42.664;23.368;2022-08-14T03:52:35;18.50;;;9.98;;
61291;SDS011;47165;42.664;23.368;2022-08-14T03:55:02;20.70;;;11.20;;
61291;SDS011;47165;42.664;23.368;2022-08-14T03:57:34;23.23;;;11.07;;
61291;SDS011;47165;42.664;23.368;2022-08-14T04:00:04;27.73;;;11.93;;
61291;SDS011;47165;42.664;23.368;2022-08-14T04:05:00;17.88;;;9.40;;
61291;SDS011;47165;42.664;23.368;2022-08-14T04:07:26;23.48;;;11.48;;
61291;SDS011;47165;42.664;23.368;2022-08-14T04:09:52;25.05;;;11.52;;
61291;SDS011;47165;42.664;23.368;2022-08-14T04:12:17;27.10;;;13.18;;
61291;SDS011;47165;42.664;23.368;2022-08-14T04:14:44;28.80;;;13.52;;
61291;SDS011;47165;42.664;23.368;2022-08-14T04:17:09;28.42;;;13.65;;
61291;SDS011;47165;42.664;23.368;2022-08-14T04:19:35;25.02;;;11.65;;
61291;SDS011;47165;42.664;23.368;2022-08-14T04:22:02;26.85;;;12.43;;
61291;SDS011;47165;42.664;23.368;2022-08-14T04:24:28;27.38;;;14.13;;
61291;SDS011;47165;42.664;23.368;2022-08-14T04:26:53;22.73;;;12.02;;
61291;SDS011;47165;42.664;23.368;2022-08-14T04:29:19;21.35;;;11.18;;
61291;SDS011;47165;42.664;23.368;2022-08-14T04:31:45;26.00;;;12.25;;
61291;SDS011;47165;42.664;23.368;2022-08-14T04:34:11;24.30;;;11.52;;
61291;SDS011;47165;42.664;23.368;2022-08-14T04:36:36;21.65;;;12.85;;
61291;SDS011;47165;42.664;23.368;2022-08-14T04:39:22;30.15;;;12.35;;
61291;SDS011;47165;42.664;23.368;2022-08-14T04:44:50;21.23;;;11.25;;
61291;SDS011;47165;42.664;23.368;2022-08-14T04:47:16;30.58;;;13.65;;
61291;SDS011;47165;42.664;23.368;2022-08-14T04:50:01;26.30;;;13.70;;
61291;SDS011;47165;42.664;23.368;2022-08-14T04:52:27;33.00;;;14.32;;
61291;SDS011;47165;42.664;23.368;2022-08-14T04:54:53;24.83;;;12.15;;
61291;SDS011;47165;42.664;23.368;2022-08-14T04:57:18;22.13;;;11.98;;
61291;SDS011;47165;42.664;23.368;2022-08-14T04:59:44;28.75;;;13.95;;
61291;SDS011;47165;42.664;23.368;2022-08-14T05:02:09;24.90;;;13.25;;
61291;SDS011;47165;42.664;23.368;2022-08-14T05:04:35;23.20;;;12.95;;
61291;SDS011;47165;42.664;23.368;2022-08-14T05:07:00;26.02;;;13.40;;
61291;SDS011;47165;42.664;23.368;2022-08-14T05:09:26;26.45;;;12.82;;
61291;SDS011;47165;42.664;23.368;2022-08-14T05:11:51;26.42;;;13.70;;
61291;SDS011;47165;42.664;23.368;2022-08-14T05:14:17;28.88;;;14.50;;
61291;SDS011;47165;42.664;23.368;2022-08-14T05:16:46;25.48;;;13.35;;
61291;SDS011;47165;42.664;23.368;2022-08-14T05:19:12;26.23;;;12.07;;
61291;SDS011;47165;42.664;23.368;2022-08-14T05:21:39;24.67;;;12.90;;
61291;SDS011;47165;42.664;23.368;2022-08-14T05:24:05;22.35;;;11.82;;
61291;SDS011;47165;42.664;23.368;2022-08-14T05:26:31;27.55;;;12.82;;
61291;SDS011;47165;42.664;23.368;2022-08-14T05:28:57;21.13;;;11.60;;
61291;SDS011;47165;42.664;23.368;2022-08-14T05:31:22;23.67;;;12.05;;
61291;SDS011;47165;42.664;23.368;2022-08-14T05:33:48;23.02;;;12.73;;
61291;SDS011;47165;42.664;23.368;2022-08-14T05:36:14;31.60;;;15.60;;
61291;SDS011;47165;42.664;23.368;2022-08-14T05:38:41;27.88;;;15.52;;
61291;SDS011;47165;42.664;23.368;2022-08-14T05:41:11;27.63;;;13.57;;
61291;SDS011;47165;42.664;23.368;2022-08-14T05:43:39;27.58;;;13.90;;
61291;SDS011;47165;42.664;23.368;2022-08-14T05:46:06;25.73;;;13.70;;
61291;SDS011;47165;42.664;23.368;2022-08-14T05:48:34;24.80;;;13.82;;
61291;SDS011;47165;42.664;23.368;2022-08-14T05:51:00;24.10;;;13.10;;
61291;SDS011;47165;42.664;23.368;2022-08-14T05:53:25;28.95;;;13.43;;
61291;SDS011;47165;42.664;23.368;2022-08-14T05:55:52;22.60;;;12.07;;
61291;SDS011;47165;42.664;23.368;2022-08-14T05:58:19;21.35;;;11.35;;
61291;SDS011;47165;42.664;23.368;2022-08-14T06:00:45;23.67;;;12.02;;
61291;SDS011;47165;42.664;23.368;2022-08-14T06:03:12;22.45;;;12.80;;
61291;SDS011;47165;42.664;23.368;2022-08-14T06:05:40;25.73;;;14.13;;
61291;SDS011;47165;42.664;23.368;2022-08-14T06:10:47;23.67;;;12.63;;
61291;SDS011;47165;42.664;23.368;2022-08-14T06:13:14;25.65;;;13.90;;
61291;SDS011;47165;42.664;23.368;2022-08-14T06:15:39;19.92;;;12.15;;
61291;SDS011;47165;42.664;23.368;2022-08-14T06:18:06;18.23;;;11.32;;
61291;SDS011;47165;42.664;23.368;2022-08-14T06:20:31;28.38;;;14.35;;
61291;SDS011;47165;42.664;23.368;2022-08-14T06:22:57;20.95;;;11.68;;
61291;SDS011;47165;42.664;23.368;2022-08-14T06:25:23;23.33;;;13.60;;
61291;SDS011;47165;42.664;23.368;2022-08-14T06:27:49;22.65;;;12.13;;
61291;SDS011;47165;42.664;23.368;2022-08-14T06:30:18;21.80;;;12.48;;
61291;SDS011;47165;42.664;23.368;2022-08-14T06:32:47;20.88;;;12.43;;
61291;SDS011;47165;42.664;23.368;2022-08-14T06:35:13;23.67;;;13.48;;
61291;SDS011;47165;42.664;23.368;2022-08-14T06:40:09;26.52;;;13.73;;
61291;SDS011;47165;42.664;23.368;2022-08-14T06:42:36;24.15;;;13.23;;
61291;SDS011;47165;42.664;23.368;2022-08-14T06:45:03;24.17;;;11.90;;
61291;SDS011;47165;42.664;23.368;2022-08-14T06:47:31;24.95;;;12.18;;
61291;SDS011;47165;42.664;23.368;2022-08-14T06:49:59;18.88;;;11.60;;
61291;SDS011;47165;42.664;23.368;2022-08-14T06:52:24;18.48;;;10.55;;
61291;SDS011;47165;42.664;23.368;2022-08-14T06:54:49;27.25;;;13.02;;
61291;SDS011;47165;42.664;23.368;2022-08-14T06:57:15;23.10;;;13.88;;
61291;SDS011;47165;42.664;23.368;2022-08-14T06:59:40;22.05;;;13.45;;
61291;SDS011;47165;42.664;23.368;2022-08-14T07:02:06;20.10;;;12.85;;
61291;SDS011;47165;42.664;23.368;2022-08-14T07:04:50;21.15;;;12.18;;
61291;SDS011;47165;42.664;23.368;2022-08-14T07:07:35;27.70;;;12.43;;
61291;SDS011;47165;42.664;23.368;2022-08-14T07:10:04;19.98;;;12.38;;
61291;SDS011;47165;42.664;23.368;2022-08-14T07:12:31;17.98;;;11.35;;
61291;SDS011;47165;42.664;23.368;2022-08-14T07:14:57;18.60;;;10.88;;
61291;SDS011;47165;42.664;23.368;2022-08-14T07:17:22;19.98;;;11.65;;
61291;SDS011;47165;42.664;23.368;2022-08-14T07:19:47;18.90;;;11.85;;
61291;SDS011;47165;42.664;23.368;2022-08-14T07:22:13;20.45;;;12.15;;
61291;SDS011;47165;42.664;23.368;2022-08-14T07:24:38;17.45;;;11.23;;
61291;SDS011;47165;42.664;23.368;2022-08-14T07:27:04;18.40;;;10.88;;
61291;SDS011;47165;42.664;23.368;2022-08-14T07:29:29;17.50;;;10.70;;
61291;SDS011;47165;42.664;23.368;2022-08-14T07:31:55;17.85;;;11.48;;
61291;SDS011;47165;42.664;23.368;2022-08-14T07:34:20;19.98;;;10.88;;
61291;SDS011;47165;42.664;23.368;2022-08-14T07:36:46;18.23;;;11.55;;
61291;SDS011;47165;42.664;23.368;2022-08-14T07:39:12;18.58;;;11.05;;
61291;SDS011;47165;42.664;23.368;2022-08-14T07:41:38;16.63;;;11.18;;
61291;SDS011;47165;42.664;23.368;2022-08-14T07:44:04;18.77;;;10.18;;
61291;SDS011;47165;42.664;23.368;2022-08-14T07:46:29;14.48;;;9.02;;
61291;SDS011;47165;42.664;23.368;2022-08-14T07:48:55;16.33;;;8.82;;
61291;SDS011;47165;42.664;23.368;2022-08-14T07:51:21;15.48;;;9.25;;
61291;SDS011;47165;42.664;23.368;2022-08-14T07:53:46;14.85;;;8.95;;
61291;SDS011;47165;42.664;23.368;2022-08-14T07:56:12;16.58;;;9.73;;
61291;SDS011;47165;42.664;23.368;2022-08-14T07:58:37;15.85;;;9.57;;
61291;SDS011;47165;42.664;23.368;2022-08-14T08:01:04;16.40;;;9.85;;
61291;SDS011;47165;42.664;23.368;2022-08-14T08:03:32;15.30;;;10.07;;
61291;SDS011;47165;42.664;23.368;2022-08-14T08:05:58;15.65;;;9.32;;
61291;SDS011;47165;42.664;23.368;2022-08-14T08:08:25;14.73;;;9.75;;
61291;SDS011;47165;42.664;23.368;2022-08-14T08:10:55;16.75;;;9.70;;
61291;SDS011;47165;42.664;23.368;2022-08-14T08:13:21;13.07;;;8.95;;
61291;SDS011;47165;42.664;23.368;2022-08-14T08:15:48;14.30;;;9.18;;
61291;SDS011;47165;42.664;23.368;2022-08-14T08:18:17;13.40;;;8.60;;
61291;SDS011;47165;42.664;23.368;2022-08-14T08:20:45;17.85;;;8.93;;
61291;SDS011;47165;42.664;23.368;2022-08-14T08:23:13;15.05;;;8.35;;
61291;SDS011;47165;42.664;23.368;2022-08-14T08:25:42;16.05;;;9.77;;
61291;SDS011;47165;42.664;23.368;2022-08-14T08:28:10;16.60;;;10.18;;
61291;SDS011;47165;42.664;23.368;2022-08-14T08:30:40;13.73;;;8.52;;
61291;SDS011;47165;42.664;23.368;2022-08-14T08:33:07;13.00;;;8.88;;
61291;SDS011;47165;42.664;23.368;2022-08-14T08:35:35;10.15;;;7.10;;
61291;SDS011;47165;42.664;23.368;2022-08-14T08:38:07;7.75;;;5.53;;
61291;SDS011;47165;42.664;23.368;2022-08-14T08:40:36;5.05;;;3.95;;
61291;SDS011;47165;42.664;23.368;2022-08-14T08:43:23;5.18;;;3.45;;
61291;SDS011;47165;42.664;23.368;2022-08-14T08:45:55;6.97;;;4.32;;
61291;SDS011;47165;42.664;23.368;2022-08-14T08:48:42;5.32;;;3.75;;
61291;SDS011;47165;42.664;23.368;2022-08-14T08:51:18;4.97;;;3.70;;
61291;SDS011;47165;42.664;23.368;2022-08-14T08:53:54;5.30;;;3.75;;
61291;SDS011;47165;42.664;23.368;2022-08-14T08:56:20;4.50;;;3.40;;
61291;SDS011;47165;42.664;23.368;2022-08-14T08:59:03;11.70;;;7.40;;
61291;SDS011;47165;42.664;23.368;2022-08-14T09:01:41;8.75;;;6.05;;
61291;SDS011;47165;42.664;23.368;2022-08-14T09:04:10;6.78;;;4.82;;
61291;SDS011;47165;42.664;23.368;2022-08-14T09:06:44;7.72;;;5.55;;
61291;SDS011;47165;42.664;23.368;2022-08-14T09:09:21;5.88;;;4.05;;
61291;SDS011;47165;42.664;23.368;2022-08-14T09:11:50;5.85;;;4.00;;
61291;SDS011;47165;42.664;23.368;2022-08-14T09:14:27;5.20;;;3.53;;
61291;SDS011;47165;42.664;23.368;2022-08-14T09:19:20;4.28;;;3.20;;
61291;SDS011;47165;42.664;23.368;2022-08-14T09:21:46;4.78;;;3.25;;
61291;SDS011;47165;42.664;23.368;2022-08-14T09:24:12;3.40;;;2.78;;
61291;SDS011;47165;42.664;23.368;2022-08-14T09:26:38;4.47;;;3.53;;
61291;SDS011;47165;42.664;23.368;2022-08-14T09:29:05;5.38;;;3.60;;
61291;SDS011;47165;42.664;23.368;2022-08-14T09:31:33;5.85;;;3.88;;
61291;SDS011;47165;42.664;23.368;2022-08-14T09:34:02;6.65;;;3.17;;
61291;SDS011;47165;42.664;23.368;2022-08-14T09:45:14;5.07;;;3.83;;
61291;SDS011;47165;42.664;23.368;2022-08-14T09:47:43;7.57;;;4.93;;
61291;SDS011;47165;42.664;23.368;2022-08-14T09:52:56;7.97;;;4.93;;
61291;SDS011;47165;42.664;23.368;2022-08-14T09:55:27;6.22;;;4.75;;
61291;SDS011;47165;42.664;23.368;2022-08-14T10:00:46;6.10;;;4.32;;
61291;SDS011;47165;42.664;23.368;2022-08-14T10:03:27;6.18;;;4.45;;
61291;SDS011;47165;42.664;23.368;2022-08-14T10:06:08;6.80;;;4.85;;
61291;SDS011;47165;42.664;23.368;2022-08-14T10:08:47;5.90;;;4.63;;
61291;SDS011;47165;42.664;23.368;2022-08-14T10:11:21;5.75;;;4.32;;
61291;SDS011;47165;42.664;23.368;2022-08-14T10:13:49;7.63;;;4.78;;
61291;SDS011;47165;42.664;23.368;2022-08-14T10:16:21;9.13;;;5.68;;
61291;SDS011;47165;42.664;23.368;2022-08-14T10:19:05;6.18;;;4.38;;
61291;SDS011;47165;42.664;23.368;2022-08-14T10:21:34;6.50;;;4.75;;
61291;SDS011;47165;42.664;23.368;2022-08-14T10:24:01;6.18;;;4.88;;
61291;SDS011;47165;42.664;23.368;2022-08-14T10:26:26;7.10;;;5.05;;
61291;SDS011;47165;42.664;23.368;2022-08-14T10:28:52;6.35;;;4.45;;
61291;SDS011;47165;42.664;23.368;2022-08-14T10:31:19;7.47;;;4.32;;
61291;SDS011;47165;42.664;23.368;2022-08-14T10:33:56;7.63;;;5.35;;
61291;SDS011;47165;42.664;23.368;2022-08-14T10:36:25;7.75;;;5.13;;
61291;SDS011;47165;42.664;23.368;2022-08-14T10:38:58;7.50;;;4.30;;
61291;SDS011;47165;42.664;23.368;2022-08-14T10:41:36;6.15;;;4.30;;
61291;SDS011;47165;42.664;23.368;2022-08-14T10:44:12;4.57;;;3.40;;
61291;SDS011;47165;42.664;23.368;2022-08-14T10:49:20;6.10;;;3.83;;
61291;SDS011;47165;42.664;23.368;2022-08-14T10:52:07;7.20;;;5.43;;
61291;SDS011;47165;42.664;23.368;2022-08-14T10:54:42;5.22;;;4.25;;
61291;SDS011;47165;42.664;23.368;2022-08-14T10:57:30;3.83;;;2.88;;
61291;SDS011;47165;42.664;23.368;2022-08-14T10:59:56;5.68;;;3.53;;
61291;SDS011;47165;42.664;23.368;2022-08-14T11:05:13;5.63;;;3.17;;
61291;SDS011;47165;42.664;23.368;2022-08-14T11:10:37;5.68;;;3.78;;
61291;SDS011;47165;42.664;23.368;2022-08-14T11:13:03;6.07;;;3.97;;
61291;SDS011;47165;42.664;23.368;2022-08-14T11:15:29;6.03;;;3.90;;
61291;SDS011;47165;42.664;23.368;2022-08-14T11:17:54;6.40;;;3.95;;
61291;SDS011;47165;42.664;23.368;2022-08-14T11:20:21;6.60;;;4.00;;
61291;SDS011;47165;42.664;23.368;2022-08-14T11:22:52;3.50;;;3.00;;
61291;SDS011;47165;42.664;23.368;2022-08-14T11:25:19;4.18;;;3.17;;
61291;SDS011;47165;42.664;23.368;2022-08-14T11:27:51;4.28;;;3.20;;
61291;SDS011;47165;42.664;23.368;2022-08-14T11:30:19;10.02;;;4.35;;
61291;SDS011;47165;42.664;23.368;2022-08-14T11:32:48;5.53;;;3.65;;
61291;SDS011;47165;42.664;23.368;2022-08-14T11:35:15;4.28;;;3.35;;
61291;SDS011;47165;42.664;23.368;2022-08-14T11:38:17;4.82;;;3.45;;
61291;SDS011;47165;42.664;23.368;2022-08-14T11:40:37;5.37;;;3.63;;
61291;SDS011;47165;42.664;23.368;2022-08-14T11:43:04;6.53;;;4.00;;
61291;SDS011;47165;42.664;23.368;2022-08-14T11:45:31;5.60;;;4.43;;
61291;SDS011;47165;42.664;23.368;2022-08-14T11:48:00;5.45;;;3.92;;
61291;SDS011;47165;42.664;23.368;2022-08-14T11:50:37;7.35;;;3.85;;
61291;SDS011;47165;42.664;23.368;2022-08-14T11:53:03;4.40;;;3.53;;
61291;SDS011;47165;42.664;23.368;2022-08-14T11:55:33;5.93;;;4.00;;
61291;SDS011;47165;42.664;23.368;2022-08-14T11:58:02;5.22;;;4.05;;
61291;SDS011;47165;42.664;23.368;2022-08-14T12:00:30;5.35;;;3.92;;
61291;SDS011;47165;42.664;23.368;2022-08-14T12:02:58;6.82;;;4.40;;
61291;SDS011;47165;42.664;23.368;2022-08-14T12:05:34;6.47;;;4.72;;
61291;SDS011;47165;42.664;23.368;2022-08-14T12:08:04;5.97;;;4.32;;
61291;SDS011;47165;42.664;23.368;2022-08-14T12:10:31;6.28;;;3.85;;
61291;SDS011;47165;42.664;23.368;2022-08-14T12:13:11;6.75;;;4.68;;
61291;SDS011;47165;42.664;23.368;2022-08-14T12:15:43;6.15;;;3.85;;
61291;SDS011;47165;42.664;23.368;2022-08-14T12:18:10;7.53;;;5.35;;
61291;SDS011;47165;42.664;23.368;2022-08-14T12:20:38;7.43;;;4.90;;
61291;SDS011;47165;42.664;23.368;2022-08-14T12:23:22;5.75;;;4.32;;
61291;SDS011;47165;42.664;23.368;2022-08-14T12:25:49;5.82;;;4.25;;
61291;SDS011;47165;42.664;23.368;2022-08-14T12:28:25;6.72;;;4.63;;
61291;SDS011;47165;42.664;23.368;2022-08-14T12:30:51;6.15;;;4.43;;
61291;SDS011;47165;42.664;23.368;2022-08-14T12:33:28;5.75;;;4.45;;
61291;SDS011;47165;42.664;23.368;2022-08-14T12:35:58;6.00;;;4.38;;
61291;SDS011;47165;42.664;23.368;2022-08-14T12:40:58;6.18;;;4.40;;
61291;SDS011;47165;42.664;23.368;2022-08-14T12:43:23;7.35;;;4.72;;
61291;SDS011;47165;42.664;23.368;2022-08-14T12:45:50;7.05;;;4.78;;
61291;SDS011;47165;42.664;23.368;2022-08-14T12:48:19;7.70;;;4.18;;
61291;SDS011;47165;42.664;23.368;2022-08-14T12:50:46;5.30;;;4.43;;
61291;SDS011;47165;42.664;23.368;2022-08-14T12:53:16;6.95;;;4.55;;
61291;SDS011;47165;42.664;23.368;2022-08-14T12:55:43;5.93;;;4.00;;
61291;SDS011;47165;42.664;23.368;2022-08-14T12:58:09;7.47;;;4.40;;
61291;SDS011;47165;42.664;23.368;2022-08-14T13:00:36;9.02;;;5.18;;
61291;SDS011;47165;42.664;23.368;2022-08-14T13:03:10;6.50;;;4.47;;
61291;SDS011;47165;42.664;23.368;2022-08-14T13:05:47;7.22;;;4.65;;
61291;SDS011;47165;42.664;23.368;2022-08-14T13:08:13;5.40;;;4.05;;
61291;SDS011;47165;42.664;23.368;2022-08-14T13:10:39;6.63;;;4.22;;
61291;SDS011;47165;42.664;23.368;2022-08-14T13:13:04;5.57;;;3.78;;
61291;SDS011;47165;42.664;23.368;2022-08-14T13:15:33;5.28;;;4.05;;
61291;SDS011;47165;42.664;23.368;2022-08-14T13:18:00;6.50;;;4.65;;
61291;SDS011;47165;42.664;23.368;2022-08-14T13:20:28;6.18;;;4.80;;
61291;SDS011;47165;42.664;23.368;2022-08-14T13:22:55;5.95;;;4.00;;
61291;SDS011;47165;42.664;23.368;2022-08-14T13:25:22;5.50;;;4.18;;
61291;SDS011;47165;42.664;23.368;2022-08-14T13:27:49;7.28;;;4.63;;
61291;SDS011;47165;42.664;23.368;2022-08-14T13:30:20;6.72;;;4.28;;
61291;SDS011;47165;42.664;23.368;2022-08-14T13:32:48;7.07;;;4.95;;
61291;SDS011;47165;42.664;23.368;2022-08-14T13:35:16;6.70;;;4.50;;
61291;SDS011;47165;42.664;23.368;2022-08-14T13:37:42;6.82;;;4.25;;
61291;SDS011;47165;42.664;23.368;2022-08-14T13:40:09;7.07;;;4.28;;
61291;SDS011;47165;42.664;23.368;2022-08-14T13:42:38;6.00;;;3.47;;
61291;SDS011;47165;42.664;23.368;2022-08-14T13:45:06;7.25;;;4.75;;
61291;SDS011;47165;42.664;23.368;2022-08-14T13:47:33;6.88;;;4.45;;
61291;SDS011;47165;42.664;23.368;2022-08-14T13:50:01;6.88;;;3.88;;
61291;SDS011;47165;42.664;23.368;2022-08-14T13:52:29;8.45;;;4.72;;
61291;SDS011;47165;42.664;23.368;2022-08-14T13:55:04;5.72;;;3.40;;
61291;SDS011;47165;42.664;23.368;2022-08-14T13:57:31;4.90;;;3.95;;
61291;SDS011;47165;42.664;23.368;2022-08-14T14:00:00;6.60;;;3.78;;
61291;SDS011;47165;42.664;23.368;2022-08-14T14:02:43;5.47;;;4.03;;
61291;SDS011;47165;42.664;23.368;2022-08-14T14:05:14;6.72;;;3.92;;
61291;SDS011;47165;42.664;23.368;2022-08-14T14:07:46;6.40;;;3.83;;
61291;SDS011;47165;42.664;23.368;2022-08-14T14:10:13;5.80;;;3.83;;
61291;SDS011;47165;42.664;23.368;2022-08-14T14:12:41;3.63;;;2.83;;
61291;SDS011;47165;42.664;23.368;2022-08-14T14:15:11;11.52;;;4.47;;
61291;SDS011;47165;42.664;23.368;2022-08-14T14:17:39;3.33;;;2.95;;
61291;SDS011;47165;42.664;23.368;2022-08-14T14:20:05;5.05;;;3.25;;
61291;SDS011;47165;42.664;23.368;2022-08-14T14:22:37;4.18;;;3.53;;
61291;SDS011;47165;42.664;23.368;2022-08-14T14:25:04;10.93;;;2.97;;
61291;SDS011;47165;42.664;23.368;2022-08-14T14:27:30;4.35;;;3.33;;
61291;SDS011;47165;42.664;23.368;2022-08-14T14:29:58;4.97;;;3.78;;
61291;SDS011;47165;42.664;23.368;2022-08-14T14:32:27;8.43;;;4.30;;
61291;SDS011;47165;42.664;23.368;2022-08-14T14:34:53;7.22;;;4.38;;
61291;SDS011;47165;42.664;23.368;2022-08-14T14:37:22;6.38;;;4.20;;
61291;SDS011;47165;42.664;23.368;2022-08-14T14:39:50;5.85;;;3.38;;
61291;SDS011;47165;42.664;23.368;2022-08-14T14:42:18;4.53;;;3.38;;
61291;SDS011;47165;42.664;23.368;2022-08-14T14:44:43;6.65;;;4.22;;
61291;SDS011;47165;42.664;23.368;2022-08-14T14:47:17;6.47;;;3.38;;
61291;SDS011;47165;42.664;23.368;2022-08-14T14:49:45;7.75;;;3.90;;
61291;SDS011;47165;42.664;23.368;2022-08-14T14:52:13;6.68;;;4.15;;
61291;SDS011;47165;42.664;23.368;2022-08-14T14:54:38;6.25;;;3.75;;
61291;SDS011;47165;42.664;23.368;2022-08-14T14:57:04;6.20;;;3.50;;
61291;SDS011;47165;42.664;23.368;2022-08-14T14:59:30;6.93;;;4.05;;
61291;SDS011;47165;42.664;23.368;2022-08-14T15:02:01;4.57;;;3.60;;
61291;SDS011;47165;42.664;23.368;2022-08-14T15:04:30;3.40;;;2.95;;
61291;SDS011;47165;42.664;23.368;2022-08-14T15:06:56;5.50;;;3.60;;
61291;SDS011;47165;42.664;23.368;2022-08-14T15:09:22;5.47;;;3.53;;